Time;durP1;ratioP1;P1;durP2;ratioP2;P2;SDS_P1;SDS_P2;PMS_P1;PMS_P2;Temp;Humidity;BMP_temperature;BMP_pressure;BME280_temperature;BME280_humidity;BME280_pressure;Samples;Min_cycle;Max_cycle;Signal;HPM_P1;HPM_P2
2022/06/02 00:01:25;;;;;;;9.33;8.33;;;;;;;8.38;81.40;99439.19;1683929;84;21099;-61
2022/06/02 00:04:18;;;;;;;10.35;8.13;;;;;;;8.21;81.76;99440.75;1684569;83;21521;-62
2022/06/02 00:07:05;;;;;;;13.22;8.30;;;;;;;8.15;81.75;99430.61;1683556;82;21047;-62
2022/06/02 00:10:02;;;;;;;10.00;9.10;;;;;;;8.08;81.79;99431.30;1744038;81;21110;-61
2022/06/02 00:12:38;;;;;;;;;;;;;;;8.01;82.00;99435.51;1722697;82;21592;-61
2022/06/02 00:15:27;;;;;;;16.10;10.88;;;;;;;7.94;82.09;99428.89;1743747;80;20401;-62
2022/06/02 00:18:31;;;;;;;12.05;10.40;;;;;;;7.87;82.13;99424.83;1749809;80;21086;-60
2022/06/02 00:21:06;;;;;;;11.00;9.80;;;;;;;7.78;82.12;99424.30;1713976;82;21640;-62
2022/06/02 00:24:06;;;;;;;11.18;9.80;;;;;;;7.65;82.07;99415.33;1692572;83;21072;-62
2022/06/02 00:26:50;;;;;;;9.48;8.55;;;;;;;7.55;82.09;99423.09;1689519;84;21072;-61
2022/06/02 00:29:40;;;;;;;9.48;8.40;;;;;;;7.40;82.07;99423.24;1704446;82;21600;-61
2022/06/02 00:32:15;;;;;;;9.65;8.63;;;;;;;7.27;82.10;99418.12;1731305;79;22257;-61
2022/06/02 00:35:29;;;;;;;10.03;8.83;;;;;;;7.15;82.25;99429.83;1738855;81;21582;-62
2022/06/02 00:38:31;;;;;;;11.70;9.15;;;;;;;7.07;82.28;99425.38;1767524;80;20891;-62
2022/06/02 00:41:15;;;;;;;10.48;9.38;;;;;;;6.95;82.32;99427.53;1761740;79;21139;-60
2022/06/02 00:44:18;;;;;;;11.40;9.95;;;;;;;6.89;82.45;99430.36;1762064;79;21012;-62
2022/06/02 00:46:58;;;;;;;12.33;9.95;;;;;;;6.81;82.49;99444.06;1771196;80;21198;-61
2022/06/02 00:49:49;;;;;;;13.28;10.55;;;;;;;6.75;82.62;99442.13;1751309;80;21002;-61
2022/06/02 00:52:26;;;;;;;15.30;10.68;;;;;;;6.71;82.63;99438.80;1749136;80;21624;-60
2022/06/02 00:58:34;;;;;;;14.28;11.10;;;;;;;6.66;82.82;99447.19;1750432;80;20908;-62
2022/06/02 01:01:14;;;;;;;13.48;12.07;;;;;;;6.59;82.79;99441.84;1746617;80;21078;-60
2022/06/02 01:03:48;;;;;;;17.20;13.68;;;;;;;6.53;82.84;99441.61;1729269;81;21506;-61
2022/06/02 01:06:35;;;;;;;12.82;11.53;;;;;;;6.52;82.97;99440.35;1736559;80;21036;-60
2022/06/02 01:09:48;;;;;;;11.73;10.53;;;;;;;6.48;83.01;99444.81;1733367;81;21071;-60
2022/06/02 01:12:45;;;;;;;12.35;10.75;;;;;;;6.45;82.94;99445.76;1728769;81;20984;-61
2022/06/02 01:15:39;;;;;;;23.47;11.50;;;;;;;6.40;83.08;99439.88;1746101;81;21432;-61
2022/06/02 01:18:43;;;;;;;76.47;12.58;;;;;;;6.40;83.27;99437.28;1764578;79;22011;-61
2022/06/02 01:21:24;;;;;;;80.47;12.55;;;;;;;6.41;83.32;99433.81;1767001;79;20978;-62
2022/06/02 01:24:20;;;;;;;37.00;9.93;;;;;;;6.40;83.33;99439.88;1760357;79;21001;-62
2022/06/02 01:27:04;;;;;;;13.32;10.10;;;;;;;6.39;83.38;99431.72;1758874;79;21611;-61
2022/06/02 01:30:00;;;;;;;12.68;11.08;;;;;;;6.36;83.40;99430.52;1757818;79;21422;-60
2022/06/02 01:33:04;;;;;;;12.47;10.55;;;;;;;6.38;83.57;99431.30;1761711;79;21592;-61
2022/06/02 01:35:42;;;;;;;11.90;10.70;;;;;;;6.44;83.80;99437.59;1759790;80;21243;-60
2022/06/02 01:38:32;;;;;;;11.65;10.43;;;;;;;6.49;83.86;99439.55;1757880;79;20944;-60
2022/06/02 01:41:24;;;;;;;12.07;10.70;;;;;;;6.55;83.89;99442.83;1687707;83;21096;-62
2022/06/02 01:44:08;;;;;;;11.15;10.00;;;;;;;6.60;83.92;99443.52;1689379;83;21079;-60
2022/06/02 01:47:03;;;;;;;10.80;9.73;;;;;;;6.64;83.94;99447.72;1688535;83;21314;-61
2022/06/02 01:49:47;;;;;;;10.25;9.03;;;;;;;6.65;83.87;99449.41;1687508;83;21132;-61
2022/06/02 01:52:37;;;;;;;9.73;8.73;;;;;;;6.64;83.86;99456.34;1661076;84;21183;-61
2022/06/02 01:55:21;;;;;;;10.28;9.35;;;;;;;6.64;83.91;99452.91;1687329;83;21037;-62
2022/06/02 01:58:21;;;;;;;10.53;9.53;;;;;;;6.62;83.99;99449.52;1655931;84;21158;-61
2022/06/02 02:00:53;;;;;;;10.23;9.23;;;;;;;6.63;84.05;99447.30;1688895;83;20973;-60
2022/06/02 02:03:40;;;;;;;10.55;9.53;;;;;;;6.62;84.08;99454.70;1688120;84;21144;-61
2022/06/02 02:06:30;;;;;;;11.00;9.50;;;;;;;6.61;84.18;99448.67;1663818;84;21007;-60
2022/06/02 02:09:10;;;;;;;10.28;9.28;;;;;;;6.64;84.24;99460.23;1688685;83;21234;-60
2022/06/02 02:11:52;;;;;;;10.05;9.05;;;;;;;6.66;84.31;99456.27;1658526;84;21433;-60
2022/06/02 02:14:48;;;;;;;9.93;8.93;;;;;;;6.69;84.37;99454.86;1687462;83;21100;-59
2022/06/02 02:17:26;;;;;;;9.73;8.83;;;;;;;6.73;84.46;99458.60;1673689;84;21056;-60
2022/06/02 02:20:19;;;;;;;10.25;9.18;;;;;;;6.80;84.60;99456.62;1732199;81;21006;-61
2022/06/02 02:22:51;;;;;;;8.60;7.85;;;;;;;6.87;84.66;99462.00;1667735;84;21139;-61
2022/06/02 02:25:59;;;;;;;8.73;7.80;;;;;;;6.94;84.73;99459.56;1678934;83;21091;-61
2022/06/02 02:28:46;;;;;;;10.03;7.97;;;;;;;7.04;84.80;99459.24;1679195;83;21595;-60
2022/06/02 02:31:47;;;;;;;9.20;8.20;;;;;;;7.10;84.85;99456.41;1685324;84;21181;-61
2022/06/02 02:34:37;;;;;;;15.40;8.05;;;;;;;7.20;84.95;99461.67;1682678;84;21650;-60
2022/06/02 02:37:14;;;;;;;8.18;7.47;;;;;;;7.28;84.86;99463.53;1652947;85;21009;-61
2022/06/02 02:40:12;;;;;;;8.25;7.40;;;;;;;7.35;84.63;99461.07;1657744;85;22410;-61
2022/06/02 02:42:55;;;;;;;8.60;7.80;;;;;;;7.42;84.48;99462.13;1683636;83;22275;-60
2022/06/02 02:45:46;;;;;;;8.55;7.75;;;;;;;7.46;84.50;99467.63;1684586;84;21070;-62
2022/06/02 02:48:49;;;;;;;10.70;7.80;;;;;;;7.51;84.54;99464.40;1681502;84;21624;-61
2022/06/02 02:51:38;;;;;;;8.33;7.45;;;;;;;7.56;84.63;99460.72;1689861;83;21010;-61
2022/06/02 02:54:31;;;;;;;8.18;7.37;;;;;;;7.59;84.77;99464.95;1688350;83;21178;-60
2022/06/02 02:57:12;;;;;;;13.45;7.20;;;;;;;7.69;84.63;99464.95;1673214;84;21127;-61
2022/06/02 02:59:58;;;;;;;8.23;7.42;;;;;;;7.69;84.85;99463.66;1690903;81;21087;-61
2022/06/02 03:02:51;;;;;;;8.83;6.83;;;;;;;7.76;84.90;99470.32;1760955;79;21129;-61
2022/06/02 03:05:43;;;;;;;9.50;6.60;;;;;;;7.77;85.22;99472.00;1761938;79;20996;-61
2022/06/02 03:08:21;;;;;;;9.05;6.03;;;;;;;7.88;85.10;99470.73;1744775;80;21032;-61
2022/06/02 03:10:51;;;;;;;8.13;6.08;;;;;;;7.99;85.17;99473.75;1691407;83;20984;-61
2022/06/02 03:13:35;;;;;;;11.00;6.78;;;;;;;8.02;85.29;99471.02;1719379;82;21524;-61
2022/06/02 03:16:08;;;;;;;8.35;5.42;;;;;;;8.11;85.43;99481.03;1716438;82;21232;-59
2022/06/02 03:19:00;;;;;;;6.12;5.53;;;;;;;8.22;85.44;99472.80;1706971;82;21090;-61
2022/06/02 03:21:34;;;;;;;6.08;5.47;;;;;;;8.34;85.48;99476.63;1704532;82;21509;-61
2022/06/02 03:24:39;;;;;;;6.28;5.25;;;;;;;8.43;85.43;99475.84;1704646;82;21162;-61
2022/06/02 03:27:23;;;;;;;4.72;4.20;;;;;;;8.52;85.45;99475.91;1716284;82;21198;-61
2022/06/02 03:30:22;;;;;;;10.72;4.92;;;;;;;8.66;85.61;99480.52;1705861;82;21104;-59
2022/06/02 03:33:08;;;;;;;6.92;3.92;;;;;;;8.73;85.37;99480.16;1715101;82;21605;-61
2022/06/02 03:35:43;;;;;;;6.37;4.65;;;;;;;8.80;85.51;99475.55;1710337;82;21116;-61
2022/06/02 03:38:54;;;;;;;8.95;4.42;;;;;;;8.94;85.63;99481.45;1716018;82;20920;-62
2022/06/02 03:41:55;;;;;;;12.60;3.98;;;;;;;9.02;85.63;99483.69;1716771;82;21068;-61
2022/06/02 03:44:47;;;;;;;5.22;4.00;;;;;;;9.12;85.64;99485.82;1710192;82;20992;-61
2022/06/02 03:47:31;;;;;;;6.80;4.08;;;;;;;9.31;85.80;99488.91;1726266;80;20994;-61
2022/06/02 03:50:45;;;;;;;5.53;2.80;;;;;;;9.44;85.55;99487.44;1757905;79;21507;-61
2022/06/02 03:53:43;;;;;;;5.15;3.05;;;;;;;9.61;85.64;99492.70;1730841;81;21091;-61
2022/06/02 03:56:30;;;;;;;6.15;3.12;;;;;;;9.81;85.50;99493.53;1740457;80;20983;-62
2022/06/02 03:59:05;;;;;;;9.18;2.98;;;;;;;10.17;85.80;99492.67;1758678;81;20977;-61
2022/06/02 04:01:43;;;;;;;3.00;2.67;;;;;;;10.60;86.17;99498.37;1758686;80;21026;-61
2022/06/02 04:04:18;;;;;;;2.90;2.37;;;;;;;10.87;85.45;99496.95;1753057;81;21552;-62
2022/06/02 04:07:07;;;;;;;4.85;3.10;;;;;;;10.99;85.22;99492.85;1756339;80;21064;-61
2022/06/02 04:09:57;;;;;;;3.20;2.37;;;;;;;11.16;85.28;99497.19;1757675;80;20994;-61
2022/06/02 04:15:47;;;;;;;5.00;2.50;;;;;;;11.49;84.39;99498.92;1758470;80;21607;-61
2022/06/02 04:18:51;;;;;;;6.00;2.77;;;;;;;11.55;84.02;99502.03;1756635;80;21575;-61
2022/06/02 04:21:47;;;;;;;3.08;2.60;;;;;;;11.70;84.33;99513.41;1755553;80;21510;-61
2022/06/02 04:25:09;;;;;;;3.02;2.50;;;;;;;11.70;84.33;99513.41;1757755;80;21021;-62
2022/06/02 04:28:31;;;;;;;3.30;2.65;;;;;;;11.84;84.28;99513.48;1759038;80;21040;-62
2022/06/02 04:31:26;;;;;;;3.35;2.62;;;;;;;11.89;84.19;99504.59;1758202;80;20957;-61
2022/06/02 04:34:21;;;;;;;5.25;2.20;;;;;;;12.13;84.20;99515.42;1758238;80;21891;-62
2022/06/02 04:37:16;;;;;;;9.33;2.58;;;;;;;12.29;84.11;99517.55;1758017;80;20964;-62
2022/06/02 04:39:48;;;;;;;5.08;2.25;;;;;;;12.49;84.50;99513.77;1755532;80;20990;-62
2022/06/02 04:42:32;;;;;;;2.72;2.00;;;;;;;12.84;84.43;99512.17;1757826;80;21002;-62
2022/06/02 04:45:41;;;;;;;2.37;2.02;;;;;;;13.31;84.69;99519.80;1760006;80;21569;-62
2022/06/02 04:48:34;;;;;;;6.05;2.52;;;;;;;13.98;84.73;99521.26;1756470;80;21418;-61
2022/06/02 04:51:12;;;;;;;6.95;2.80;;;;;;;14.95;84.84;99510.42;1755175;80;21107;-62
2022/06/02 04:54:07;;;;;;;2.90;2.12;;;;;;;15.51;83.30;99509.20;1759472;80;20995;-62
2022/06/02 04:56:51;;;;;;;2.60;2.08;;;;;;;15.62;82.29;99507.97;1761081;79;21003;-61
2022/06/02 04:59:41;;;;;;;5.53;2.00;;;;;;;15.47;82.18;99503.81;1764516;78;20943;-62
2022/06/02 05:02:45;;;;;;;6.20;2.17;;;;;;;15.34;82.14;99512.55;1756179;79;21083;-61
2022/06/02 05:05:41;;;;;;;5.35;2.55;;;;;;;15.14;81.86;99503.91;1763662;79;21008;-62
2022/06/02 05:08:54;;;;;;;3.27;2.02;;;;;;;15.17;82.77;99508.95;1751791;80;22564;-61
2022/06/02 05:11:41;;;;;;;7.00;2.20;;;;;;;15.14;81.99;99514.42;1753817;80;21486;-60
2022/06/02 05:14:34;;;;;;;2.50;1.92;;;;;;;14.90;81.52;99511.24;1750643;80;20944;-61
2022/06/02 05:17:38;;;;;;;2.85;2.02;;;;;;;14.98;81.98;99511.56;1745544;80;21206;-61
2022/06/02 05:20:53;;;;;;;9.53;2.20;;;;;;;15.06;82.10;99518.06;1743737;80;20999;-61
2022/06/02 05:23:57;;;;;;;2.37;2.00;;;;;;;15.12;81.48;99522.89;1745112;81;20968;-62
2022/06/02 05:26:48;;;;;;;2.20;2.00;;;;;;;15.02;81.12;99524.48;1745655;80;21019;-62
2022/06/02 05:29:49;;;;;;;2.47;2.05;;;;;;;14.77;80.74;99526.16;1744396;81;21513;-62
2022/06/02 05:32:48;;;;;;;3.55;1.92;;;;;;;14.63;80.88;99534.13;1746647;80;21075;-62
2022/06/02 05:35:56;;;;;;;2.22;2.02;;;;;;;14.36;80.62;99537.59;1677946;83;21049;-62
2022/06/02 05:39:00;;;;;;;2.30;2.10;;;;;;;14.10;80.18;99533.58;1695606;83;21515;-62
2022/06/02 05:41:58;;;;;;;2.77;2.17;;;;;;;13.89;80.38;99531.02;1659504;84;20937;-61
2022/06/02 05:44:42;;;;;;;2.27;2.00;;;;;;;13.83;80.65;99536.66;1661648;84;21708;-61
2022/06/02 05:47:33;;;;;;;3.08;2.22;;;;;;;13.85;80.76;99535.63;1663361;84;21439;-61
2022/06/02 05:50:34;;;;;;;2.72;2.45;;;;;;;13.81;80.64;99541.19;1648234;84;21576;-61
2022/06/02 05:53:32;;;;;;;2.20;1.95;;;;;;;13.84;80.69;99535.74;1666035;84;21061;-61
2022/06/02 05:56:27;;;;;;;2.45;1.90;;;;;;;13.89;80.33;99542.83;1693238;83;21570;-62
2022/06/02 05:59:05;;;;;;;5.10;2.77;;;;;;;13.93;80.42;99537.77;1666928;84;21132;-62
2022/06/02 06:01:58;;;;;;;2.70;2.22;;;;;;;13.85;79.91;99543.97;1662823;83;21275;-63
2022/06/02 06:04:35;;;;;;;5.70;2.47;;;;;;;13.71;79.72;99536.14;1673323;84;21052;-61
2022/06/02 06:07:25;;;;;;;3.50;2.17;;;;;;;13.63;79.98;99538.77;1695936;83;21010;-62
2022/06/02 06:10:27;;;;;;;2.80;1.80;;;;;;;13.69;79.92;99536.70;1639207;85;21159;-61
2022/06/02 06:13:19;;;;;;;3.15;1.80;;;;;;;13.71;79.57;99540.07;1659155;85;20973;-62
2022/06/02 06:16:09;;;;;;;2.00;1.60;;;;;;;13.72;79.56;99541.75;1646879;85;21131;-61
2022/06/02 06:19:02;;;;;;;1.77;1.60;;;;;;;13.70;79.27;99546.27;1659951;85;21100;-60
2022/06/02 06:21:47;;;;;;;2.22;1.80;;;;;;;13.72;79.34;99548.30;1679148;84;20989;-62
2022/06/02 06:24:46;;;;;;;3.22;1.70;;;;;;;13.73;79.21;99557.88;1685055;84;20994;-63
2022/06/02 06:27:42;;;;;;;10.88;2.15;;;;;;;13.78;79.17;99554.47;1635234;86;21573;-63
2022/06/02 06:30:33;;;;;;;1.82;1.65;;;;;;;13.80;79.63;99560.00;1656882;85;21667;-62
2022/06/02 06:33:30;;;;;;;3.30;1.87;;;;;;;14.02;79.77;99567.36;1659401;85;21758;-61
2022/06/02 06:36:28;;;;;;;3.67;1.65;;;;;;;14.22;79.14;99567.86;1657120;85;21147;-61
2022/06/02 06:39:21;;;;;;;1.87;1.40;;;;;;;14.44;79.34;99562.89;1661976;85;21000;-60
2022/06/02 06:42:28;;;;;;;3.12;1.80;;;;;;;14.62;78.40;99565.27;1658885;85;22496;-60
2022/06/02 06:45:21;;;;;;;3.87;1.77;;;;;;;14.52;78.48;99569.83;1657195;85;21063;-61
2022/06/02 06:48:02;;;;;;;2.42;1.65;;;;;;;14.55;78.33;99572.25;1711727;81;21484;-62
2022/06/02 06:50:53;;;;;;;1.80;1.62;;;;;;;14.44;77.85;99572.09;1745209;81;21208;-63
2022/06/02 06:53:52;;;;;;;13.62;2.33;;;;;;;14.41;78.36;99572.29;1743694;81;20986;-61
2022/06/02 06:56:51;;;;;;;2.55;1.67;;;;;;;14.60;78.64;99569.33;1724130;80;21047;-61
2022/06/02 06:59:51;;;;;;;3.00;1.77;;;;;;;14.69;77.84;99573.13;1713122;82;22279;-60
2022/06/02 07:02:35;;;;;;;5.90;1.72;;;;;;;14.77;78.08;99576.92;1710345;82;20963;-61
2022/06/02 07:05:19;;;;;;;2.83;1.37;;;;;;;15.17;78.30;99578.64;1713408;82;21577;-61
2022/06/02 07:08:00;;;;;;;3.30;1.50;;;;;;;15.82;78.34;99577.64;1714703;82;21062;-61
2022/06/02 07:10:53;;;;;;;3.40;1.60;;;;;;;16.33;77.99;99580.95;1701587;82;21564;-63
2022/06/02 07:13:28;;;;;;;3.00;1.30;;;;;;;17.21;78.38;99581.83;1711721;82;21474;-61
2022/06/02 07:16:18;;;;;;;7.45;1.80;;;;;;;18.15;77.71;99577.59;1714484;82;21034;-62
2022/06/02 07:19:14;;;;;;;7.72;1.60;;;;;;;19.05;77.59;99578.56;1656734;86;21206;-62
2022/06/02 07:22:04;;;;;;;12.58;2.55;;;;;;;19.86;76.43;99575.53;1541323;91;21198;-63
2022/06/02 07:24:59;;;;;;;62.17;5.95;;;;;;;19.98;75.84;99572.28;1546075;91;21127;-62
2022/06/02 07:27:39;;;;;;;17.40;2.02;;;;;;;20.44;76.27;99580.06;1537117;92;22285;-62
2022/06/02 07:30:49;;;;;;;3.47;0.98;;;;;;;20.30;75.22;99572.86;1539355;91;21199;-62
2022/06/02 07:33:53;;;;;;;1.30;0.70;;;;;;;20.28;75.13;99581.47;1562335;90;21146;-61
2022/06/02 07:36:57;;;;;;;1.10;0.93;;;;;;;19.92;73.99;99580.78;1562466;90;21029;-63
2022/06/02 07:39:41;;;;;;;1.40;0.82;;;;;;;19.38;73.31;99589.37;1562130;90;21038;-62
2022/06/02 07:42:33;;;;;;;12.70;1.40;;;;;;;18.88;73.40;99587.44;1562308;90;21450;-62
2022/06/02 07:45:14;;;;;;;26.97;3.08;;;;;;;18.90;73.66;99588.13;1564069;90;21125;-62
2022/06/02 07:47:52;;;;;;;3.30;1.40;;;;;;;19.15;73.72;99599.28;1565308;90;21786;-61
2022/06/02 07:50:27;;;;;;;3.05;1.40;;;;;;;19.04;71.34;99604.65;1564429;90;21098;-63
2022/06/02 07:53:23;;;;;;;5.15;1.20;;;;;;;18.62;71.37;99607.23;1611726;85;21248;-62
2022/06/02 07:56:02;;;;;;;2.83;1.50;;;;;;;18.63;72.17;99610.25;1702119;80;22231;-63
2022/06/02 07:58:48;;;;;;;3.33;1.32;;;;;;;18.36;69.93;99618.14;1769837;79;21057;-62
2022/06/02 08:01:21;;;;;;;;;;;;;;;18.45;71.55;99612.09;1723067;82;21070;-62
2022/06/02 08:04:23;;;;;;;2.00;1.17;;;;;;;18.70;70.92;99612.23;1714064;82;20155;-62
2022/06/02 08:07:04;;;;;;;4.50;1.50;;;;;;;19.05;71.45;99610.31;1669127;85;21028;-63
2022/06/02 08:09:54;;;;;;;2.00;1.27;;;;;;;19.51;70.44;99619.13;1671486;84;21123;-62
2022/06/02 08:12:44;;;;;;;1.50;1.12;;;;;;;19.50;70.37;99619.28;1668241;85;21009;-63
2022/06/02 08:15:37;;;;;;;2.45;1.20;;;;;;;19.36;68.24;99631.88;1672255;84;21085;-62
2022/06/02 08:18:27;;;;;;;1.75;1.20;;;;;;;18.40;68.12;99635.45;1670881;84;21029;-63
2022/06/02 08:21:17;;;;;;;58.08;6.05;;;;;;;18.06;69.25;99635.52;1669475;85;21566;-63
2022/06/02 08:24:07;;;;;;;3.42;1.35;;;;;;;18.68;69.78;99638.45;1615533;86;21994;-63
2022/06/02 08:26:53;;;;;;;2.55;1.12;;;;;;;19.10;69.59;99635.87;1639688;85;21716;-62
2022/06/02 08:29:37;;;;;;;3.47;1.27;;;;;;;18.93;67.67;99648.74;1622557;86;21217;-63
2022/06/02 08:32:12;;;;;;;5.33;1.52;;;;;;;19.11;68.91;99647.67;1646583;85;21020;-62
2022/06/02 08:34:53;;;;;;;0.88;0.82;;;;;;;19.64;68.37;99640.11;1639637;85;21096;-62
2022/06/02 08:37:25;;;;;;;3.17;1.17;;;;;;;19.32;66.01;99645.01;1614244;86;21442;-60
2022/06/02 08:40:00;;;;;;;1.98;1.10;;;;;;;18.59;64.96;99647.15;1640457;85;21064;-61
2022/06/02 08:42:58;;;;;;;3.35;1.20;;;;;;;18.14;65.27;99651.23;1657985;84;21547;-61
2022/06/02 08:45:42;;;;;;;5.25;1.37;;;;;;;17.90;65.52;99644.30;1656804;84;21073;-60
2022/06/02 08:48:46;;;;;;;8.00;1.62;;;;;;;17.81;66.11;99660.39;1678030;84;21127;-60
2022/06/02 08:51:50;;;;;;;5.47;1.87;;;;;;;17.62;65.69;99667.55;1645928;85;21191;-61
2022/06/02 08:54:59;;;;;;;3.17;1.70;;;;;;;17.01;65.10;99668.25;1658520;84;21617;-61
2022/06/02 08:57:58;;;;;;;4.00;1.67;;;;;;;16.18;64.73;99676.88;1622706;86;22617;-61
2022/06/02 09:01:01;;;;;;;3.27;1.52;;;;;;;15.74;65.97;99678.23;1623322;84;20965;-61
2022/06/02 09:04:13;;;;;;;2.98;1.50;;;;;;;15.72;66.09;99690.66;1669804;84;21185;-61
2022/06/02 09:07:15;;;;;;;2.58;1.50;;;;;;;15.73;66.42;99680.48;1678120;84;20974;-62
2022/06/02 09:10:16;;;;;;;2.52;1.80;;;;;;;15.94;67.14;99677.33;1636976;85;21091;-62
2022/06/02 09:13:01;;;;;;;2.58;1.40;;;;;;;16.55;67.82;99679.50;1603455;88;21078;-61
2022/06/02 09:16:05;;;;;;;1.90;1.42;;;;;;;17.05;66.38;99680.23;1604459;88;21069;-60
2022/06/02 09:19:10;;;;;;;5.62;1.60;;;;;;;16.96;66.25;99675.66;1577381;89;21143;-60
2022/06/02 09:21:54;;;;;;;3.03;1.90;;;;;;;16.99;66.45;99672.79;1579041;89;21580;-59
2022/06/02 09:24:54;;;;;;;1.67;1.47;;;;;;;16.99;66.53;99684.66;1633050;86;21105;-61
2022/06/02 09:27:43;;;;;;;4.72;1.40;;;;;;;17.17;66.70;99681.98;1631927;86;21133;-60
2022/06/02 09:30:31;;;;;;;2.15;1.27;;;;;;;17.22;66.42;99679.84;1629634;86;21193;-60
2022/06/02 09:33:37;;;;;;;2.30;1.30;;;;;;;17.08;66.17;99677.38;1610717;87;21119;-61
2022/06/02 09:36:17;;;;;;;2.55;1.30;;;;;;;16.86;66.25;99683.88;1599700;88;21506;-60
2022/06/02 09:39:29;;;;;;;3.12;1.20;;;;;;;16.87;66.53;99693.49;1596688;88;21740;-61
2022/06/02 09:42:20;;;;;;;4.90;1.15;;;;;;;17.08;67.01;99689.72;1597223;88;21090;-61
2022/06/02 09:44:58;;;;;;;3.98;1.40;;;;;;;17.97;67.92;99687.74;1614725;85;21104;-60
2022/06/02 09:47:59;;;;;;;3.00;1.10;;;;;;;18.61;66.82;99692.83;1624349;85;21195;-60
2022/06/02 09:50:50;;;;;;;2.05;1.20;;;;;;;18.52;65.83;99695.25;1622286;86;21535;-61
2022/06/02 09:53:38;;;;;;;6.28;1.00;;;;;;;18.25;65.02;99705.39;1617898;86;21736;-62
2022/06/02 09:56:27;;;;;;;2.98;1.20;;;;;;;17.58;64.42;99730.77;1621433;86;21608;-61
2022/06/02 09:59:33;;;;;;;2.58;1.25;;;;;;;16.53;62.11;99746.00;1645624;85;21215;-61
2022/06/02 10:02:25;;;;;;;2.83;1.10;;;;;;;15.07;62.54;99740.61;1574969;89;21088;-61
2022/06/02 10:05:18;;;;;;;5.28;1.40;;;;;;;14.15;64.25;99745.14;1628656;87;21334;-61
2022/06/02 10:08:08;;;;;;;131.57;77.72;;;;;;;14.01;65.86;99757.32;1626845;87;20978;-62
2022/06/02 10:11:01;;;;;;;28.23;14.25;;;;;;;14.59;66.89;99755.97;1641473;85;21157;-60
2022/06/02 10:13:57;;;;;;;4.60;2.47;;;;;;;15.18;66.48;99756.56;1662787;85;21225;-61
2022/06/02 10:17:14;;;;;;;1.90;1.07;;;;;;;15.66;66.29;99752.91;1586374;88;21629;-62
2022/06/02 10:20:16;;;;;;;2.12;1.40;;;;;;;15.65;65.32;99755.15;1587177;88;21086;-61
2022/06/02 10:23:13;;;;;;;1.45;0.78;;;;;;;15.60;65.18;99759.88;1583519;88;21539;-61
2022/06/02 10:26:02;;;;;;;0.88;0.60;;;;;;;15.39;65.02;99751.17;1582034;88;21865;-61
2022/06/02 10:29:16;;;;;;;0.80;0.65;;;;;;;14.82;64.84;99776.40;1581319;88;21241;-61
2022/06/02 10:32:38;;;;;;;1.85;0.60;;;;;;;14.28;64.58;99785.44;1582452;87;21158;-62
2022/06/02 10:35:49;;;;;;;2.52;0.90;;;;;;;13.81;65.11;99782.63;1598012;82;21117;-60
2022/06/02 10:39:53;;;;;;;0.80;0.70;;;;;;;13.68;65.72;99774.62;1813800;77;22864;-60
2022/06/02 10:42:58;;;;;;;1.12;0.70;;;;;;;13.90;66.29;99778.13;1814078;78;21042;-62
2022/06/02 10:45:59;;;;;;;2.47;0.60;;;;;;;14.64;67.03;99780.18;1812083;78;21135;-60
2022/06/02 10:49:11;;;;;;;1.30;0.78;;;;;;;15.40;66.94;99783.12;1814300;77;20965;-60
2022/06/02 10:52:18;;;;;;;1.90;0.93;;;;;;;16.00;66.93;99784.86;1811219;78;21831;-60
2022/06/02 10:55:20;;;;;;;1.75;1.07;;;;;;;16.84;67.18;99784.70;1780588;80;20960;-60
2022/06/02 10:58:25;;;;;;;3.67;1.10;;;;;;;17.30;66.85;99776.88;1778988;80;21722;-61
2022/06/02 11:01:34;;;;;;;1.67;1.00;;;;;;;17.50;66.67;99775.38;1766237;80;21005;-60
2022/06/02 11:04:13;;;;;;;1.98;0.82;;;;;;;17.64;66.61;99777.84;1779303;78;21014;-61
2022/06/02 11:07:33;;;;;;;1.65;1.22;;;;;;;17.86;66.45;99779.70;1769585;80;21051;-62
2022/06/02 11:10:33;;;;;;;3.85;1.10;;;;;;;17.72;65.99;99777.73;1750546;80;21096;-62
2022/06/02 11:13:40;;;;;;;1.92;1.15;;;;;;;17.56;65.73;99785.50;1730304;81;21153;-61
2022/06/02 11:16:49;;;;;;;1.80;0.80;;;;;;;17.25;65.40;99795.32;1742615;81;21748;-61
2022/06/02 11:19:53;;;;;;;2.90;1.50;;;;;;;16.98;65.61;99808.27;1743009;81;21049;-62
2022/06/02 11:22:48;;;;;;;1.92;1.20;;;;;;;16.72;65.43;99805.69;1733015;81;20956;-62
2022/06/02 11:25:29;;;;;;;1.92;1.20;;;;;;;16.18;65.32;99819.13;1736470;80;21036;-61
2022/06/02 11:28:04;;;;;;;2.30;1.45;;;;;;;15.71;65.28;99827.18;1737439;81;21050;-62
2022/06/02 11:31:04;;;;;;;2.12;1.42;;;;;;;15.28;65.71;99835.22;1734804;81;21948;-61
2022/06/02 11:34:18;;;;;;;2.00;1.20;;;;;;;14.93;65.44;99828.30;1734357;81;21070;-61
2022/06/02 11:37:13;;;;;;;1.62;1.40;;;;;;;14.55;66.09;99829.73;1731646;81;60505;-61
2022/06/02 11:40:11;;;;;;;2.72;1.77;;;;;;;14.63;66.62;99838.47;1742375;81;20978;-62
2022/06/02 11:43:13;;;;;;;4.10;2.05;;;;;;;14.93;66.76;99834.39;1735986;81;21507;-61
2022/06/02 11:46:01;;;;;;;4.00;1.67;;;;;;;15.18;66.85;99830.20;1738411;81;21475;-60
2022/06/02 11:49:03;;;;;;;4.05;1.95;;;;;;;15.43;66.89;99833.36;1738269;81;21161;-60
2022/06/02 11:52:01;;;;;;;1.55;1.37;;;;;;;15.62;66.86;99836.47;1763940;79;21006;-62
2022/06/02 11:55:03;;;;;;;6.47;1.87;;;;;;;15.83;66.95;99838.19;1773042;79;20977;-62
2022/06/02 11:57:47;;;;;;;2.70;1.50;;;;;;;16.21;67.41;99828.62;1738612;81;21597;-62
2022/06/02 12:00:45;;;;;;;4.75;1.40;;;;;;;16.64;67.25;99825.64;1776207;79;21069;-60
2022/06/02 12:03:38;;;;;;;3.50;1.60;;;;;;;17.25;67.72;99817.75;1774975;79;21013;-61
2022/06/02 12:06:52;;;;;;;3.40;1.65;;;;;;;17.90;67.71;99812.03;1768579;79;21156;-62
2022/06/02 12:09:48;;;;;;;5.75;1.67;;;;;;;18.34;66.77;99814.34;1779421;79;21067;-61
2022/06/02 12:12:38;;;;;;;4.58;1.72;;;;;;;18.05;65.36;99810.84;1766114;79;21084;-61
2022/06/02 12:15:29;;;;;;;4.25;1.75;;;;;;;18.22;66.97;99808.70;1771772;78;21131;-62
2022/06/02 12:18:29;;;;;;;2.77;1.87;;;;;;;18.23;63.24;99813.02;1726178;81;20985;-61
2022/06/02 12:21:25;;;;;;;4.42;1.62;;;;;;;17.82;65.58;99813.09;1708166;82;21833;-61
2022/06/02 12:24:00;;;;;;;3.70;1.47;;;;;;;17.75;65.60;99802.58;1720231;82;20950;-60
2022/06/02 12:27:04;;;;;;;2.72;1.62;;;;;;;17.52;65.20;99806.95;1734234;81;21228;-61
2022/06/02 12:29:48;;;;;;;3.15;1.42;;;;;;;17.35;65.00;99806.89;1732460;81;23534;-61
2022/06/02 12:32:46;;;;;;;3.12;1.60;;;;;;;17.14;64.62;99809.30;1735100;81;21509;-62
2022/06/02 12:35:29;;;;;;;1.85;1.20;;;;;;;16.69;64.24;99813.81;1739336;81;20937;-61
2022/06/02 12:38:38;;;;;;;3.33;1.50;;;;;;;16.49;64.75;99821.79;1735414;81;21112;-61
2022/06/02 12:41:30;;;;;;;2.85;1.30;;;;;;;16.48;64.94;99828.50;1727606;81;21520;-61
2022/06/02 12:44:18;;;;;;;1.82;1.00;;;;;;;16.52;65.07;99824.69;1705668;83;21158;-62
2022/06/02 12:47:23;;;;;;;3.05;1.30;;;;;;;16.55;64.78;99824.47;1725771;81;21095;-62
2022/06/02 12:50:04;;;;;;;1.95;1.20;;;;;;;16.61;64.77;99828.02;1718000;82;21687;-61
2022/06/02 12:53:10;;;;;;;3.60;1.12;;;;;;;16.63;64.70;99830.05;1708229;82;21548;-62
2022/06/02 12:56:04;;;;;;;2.60;1.02;;;;;;;16.68;64.52;99827.94;1730444;81;20945;-61
2022/06/02 12:58:54;;;;;;;2.95;1.20;;;;;;;16.70;64.35;99831.31;1708203;82;21605;-60
2022/06/02 13:01:50;;;;;;;8.03;1.15;;;;;;;16.57;63.47;99827.84;1735524;81;21085;-61
2022/06/02 13:04:48;;;;;;;2.12;0.90;;;;;;;16.28;63.54;99833.37;1734632;81;21036;-60
2022/06/02 13:08:03;;;;;;;2.08;0.95;;;;;;;16.24;63.79;99835.83;1737196;81;20986;-61
2022/06/02 13:10:35;;;;;;;4.25;0.78;;;;;;;16.68;64.16;99834.52;1710453;82;21161;-61
2022/06/02 13:13:22;;;;;;;2.58;0.60;;;;;;;16.91;63.50;99830.75;1693759;83;21465;-61
2022/06/02 13:16:24;;;;;;;2.80;1.37;;;;;;;17.00;63.06;99838.03;1720201;82;21067;-60
2022/06/02 13:19:14;;;;;;;1.20;0.53;;;;;;;16.91;62.77;99830.75;1674497;84;21059;-61
2022/06/02 13:22:15;;;;;;;6.55;0.90;;;;;;;16.99;61.25;99845.55;1675699;84;21031;-60
2022/06/02 13:25:10;;;;;;;3.95;0.57;;;;;;;16.82;61.46;99834.05;1674401;84;21488;-60
2022/06/02 13:27:45;;;;;;;5.55;0.90;;;;;;;16.88;60.84;99844.16;1673999;84;21121;-61
2022/06/02 13:30:26;;;;;;;3.00;0.68;;;;;;;17.12;61.50;99847.68;1687341;83;21080;-61
2022/06/02 13:33:22;;;;;;;3.20;0.40;;;;;;;17.32;61.24;99855.95;1675004;84;21561;-61
2022/06/02 13:36:09;;;;;;;1.62;0.60;;;;;;;17.07;58.51;99855.08;1668258;84;21037;-61
2022/06/02 13:38:59;;;;;;;1.55;0.65;;;;;;;17.04;58.45;99842.11;1673141;84;21551;-61
2022/06/02 13:41:53;;;;;;;1.32;0.70;;;;;;;17.15;59.55;99852.73;1688546;84;21106;-61